sensor_id;sensor_type;location;lat;lon;timestamp;temperature;humidity
70267;DHT22;57676;43.856;1.926;2022-09-28T01:40:23;14.60;99.90
70267;DHT22;57676;43.856;1.926;2022-09-28T01:42:54;14.60;99.90
70267;DHT22;57676;43.856;1.926;2022-09-28T01:45:26;14.60;99.90
70267;DHT22;57676;43.856;1.926;2022-09-28T01:47:58;14.60;99.90
70267;DHT22;57676;43.856;1.926;2022-09-28T01:50:28;14.60;99.90
70267;DHT22;57676;43.856;1.926;2022-09-28T01:52:58;14.60;99.90
70267;DHT22;57676;43.856;1.926;2022-09-28T01:55:31;14.60;99.90
70267;DHT22;57676;43.856;1.926;2022-09-28T01:58:21;14.60;99.90
70267;DHT22;57676;43.856;1.926;2022-09-28T02:00:55;14.60;99.90
70267;DHT22;57676;43.856;1.926;2022-09-28T02:03:28;14.60;99.90
70267;DHT22;57676;43.856;1.926;2022-09-28T02:06:01;14.60;99.90
70267;DHT22;57676;43.856;1.926;2022-09-28T02:08:35;14.60;99.90
70267;DHT22;57676;43.856;1.926;2022-09-28T02:11:13;14.60;99.90
70267;DHT22;57676;43.856;1.926;2022-09-28T02:14:03;14.60;99.90
70267;DHT22;57676;43.856;1.926;2022-09-28T02:16:38;14.60;99.90
70267;DHT22;57676;43.856;1.926;2022-09-28T02:19:08;14.60;99.90
70267;DHT22;57676;43.856;1.926;2022-09-28T02:21:45;14.60;99.90
70267;DHT22;57676;43.856;1.926;2022-09-28T02:24:36;14.60;99.90
70267;DHT22;57676;43.856;1.926;2022-09-28T02:27:11;14.60;99.90
70267;DHT22;57676;43.856;1.926;2022-09-28T02:29:37;14.70;99.90
70267;DHT22;57676;43.856;1.926;2022-09-28T02:32:03;14.70;99.90
70267;DHT22;57676;43.856;1.926;2022-09-28T02:34:29;14.70;99.90
70267;DHT22;57676;43.856;1.926;2022-09-28T02:36:54;14.70;99.90
70267;DHT22;57676;43.856;1.926;2022-09-28T02:39:20;14.70;99.90
70267;DHT22;57676;43.856;1.926;2022-09-28T02:42:08;14.70;99.90
70267;DHT22;57676;43.856;1.926;2022-09-28T02:45:04;14.70;99.90
70267;DHT22;57676;43.856;1.926;2022-09-28T02:53:22;14.70;99.90
70267;DHT22;57676;43.856;1.926;2022-09-28T02:59:25;14.60;99.90
70267;DHT22;57676;43.856;1.926;2022-09-28T03:02:10;14.60;99.90
70267;DHT22;57676;43.856;1.926;2022-09-28T03:04:48;14.60;99.90
70267;DHT22;57676;43.856;1.926;2022-09-28T03:07:25;14.60;99.90
70267;DHT22;57676;43.856;1.926;2022-09-28T03:10:01;14.60;99.90
70267;DHT22;57676;43.856;1.926;2022-09-28T03:12:28;14.60;99.90
70267;DHT22;57676;43.856;1.926;2022-09-28T03:18:00;14.60;99.90
70267;DHT22;57676;43.856;1.926;2022-09-28T03:20:27;14.60;99.90
70267;DHT22;57676;43.856;1.926;2022-09-28T03:22:54;14.60;99.90
70267;DHT22;57676;43.856;1.926;2022-09-28T03:25:19;14.60;99.90
70267;DHT22;57676;43.856;1.926;2022-09-28T03:27:45;14.60;99.90
70267;DHT22;57676;43.856;1.926;2022-09-28T03:30:12;14.70;99.90
70267;DHT22;57676;43.856;1.926;2022-09-28T03:32:38;14.70;99.90
70267;DHT22;57676;43.856;1.926;2022-09-28T03:35:05;14.70;99.90
70267;DHT22;57676;43.856;1.926;2022-09-28T03:37:31;14.60;99.90
70267;DHT22;57676;43.856;1.926;2022-09-28T03:39:57;14.60;99.90
70267;DHT22;57676;43.856;1.926;2022-09-28T03:42:23;14.60;99.90
70267;DHT22;57676;43.856;1.926;2022-09-28T03:44:49;14.60;99.90
70267;DHT22;57676;43.856;1.926;2022-09-28T03:47:14;14.60;99.90
70267;DHT22;57676;43.856;1.926;2022-09-28T03:49:42;14.60;99.90
70267;DHT22;57676;43.856;1.926;2022-09-28T03:52:08;14.60;99.90
70267;DHT22;57676;43.856;1.926;2022-09-28T03:54:34;14.60;99.90
70267;DHT22;57676;43.856;1.926;2022-09-28T03:57:00;14.60;99.90
70267;DHT22;57676;43.856;1.926;2022-09-28T03:59:26;14.60;99.90
70267;DHT22;57676;43.856;1.926;2022-09-28T04:01:51;14.60;99.90
70267;DHT22;57676;43.856;1.926;2022-09-28T04:04:17;14.60;99.90
70267;DHT22;57676;43.856;1.926;2022-09-28T04:09:10;14.60;99.90
70267;DHT22;57676;43.856;1.926;2022-09-28T04:11:36;14.70;99.90
70267;DHT22;57676;43.856;1.926;2022-09-28T04:14:01;14.70;99.90
70267;DHT22;57676;43.856;1.926;2022-09-28T04:16:27;14.70;99.90
70267;DHT22;57676;43.856;1.926;2022-09-28T04:18:53;14.70;99.90
70267;DHT22;57676;43.856;1.926;2022-09-28T04:21:19;14.70;99.90
70267;DHT22;57676;43.856;1.926;2022-09-28T04:23:46;14.70;99.90
70267;DHT22;57676;43.856;1.926;2022-09-28T04:26:18;14.70;99.90
70267;DHT22;57676;43.856;1.926;2022-09-28T04:28:45;14.80;99.90
70267;DHT22;57676;43.856;1.926;2022-09-28T04:31:36;14.70;99.90
70267;DHT22;57676;43.856;1.926;2022-09-28T04:34:02;14.70;99.90
70267;DHT22;57676;43.856;1.926;2022-09-28T04:36:28;14.70;99.90
70267;DHT22;57676;43.856;1.926;2022-09-28T04:38:54;14.60;99.90
70267;DHT22;57676;43.856;1.926;2022-09-28T04:41:20;14.60;99.90
70267;DHT22;57676;43.856;1.926;2022-09-28T04:43:47;14.70;99.90
70267;DHT22;57676;43.856;1.926;2022-09-28T04:46:12;14.70;99.90
70267;DHT22;57676;43.856;1.926;2022-09-28T04:48:39;14.70;99.90
70267;DHT22;57676;43.856;1.926;2022-09-28T04:51:06;14.70;99.90
70267;DHT22;57676;43.856;1.926;2022-09-28T04:53:32;14.80;99.90
70267;DHT22;57676;43.856;1.926;2022-09-28T04:56:01;14.70;99.90
70267;DHT22;57676;43.856;1.926;2022-09-28T04:58:28;14.60;99.90
70267;DHT22;57676;43.856;1.926;2022-09-28T05:00:59;14.70;99.90
70267;DHT22;57676;43.856;1.926;2022-09-28T05:03:27;14.70;99.90
70267;DHT22;57676;43.856;1.926;2022-09-28T05:05:55;14.70;99.90
70267;DHT22;57676;43.856;1.926;2022-09-28T05:08:23;14.60;99.90
70267;DHT22;57676;43.856;1.926;2022-09-28T05:10:56;14.70;99.90
70267;DHT22;57676;43.856;1.926;2022-09-28T05:13:23;14.70;99.90
70267;DHT22;57676;43.856;1.926;2022-09-28T05:15:52;14.60;99.90
70267;DHT22;57676;43.856;1.926;2022-09-28T05:18:19;14.70;99.90
70267;DHT22;57676;43.856;1.926;2022-09-28T05:20:45;14.60;99.90
70267;DHT22;57676;43.856;1.926;2022-09-28T05:23:11;14.60;99.90
70267;DHT22;57676;43.856;1.926;2022-09-28T05:25:38;14.60;99.90
70267;DHT22;57676;43.856;1.926;2022-09-28T05:28:05;14.50;99.90
70267;DHT22;57676;43.856;1.926;2022-09-28T05:30:32;14.50;99.90
70267;DHT22;57676;43.856;1.926;2022-09-28T05:32:58;14.50;99.90
70267;DHT22;57676;43.856;1.926;2022-09-28T05:35:24;14.60;99.90
70267;DHT22;57676;43.856;1.926;2022-09-28T05:37:50;14.60;99.90
70267;DHT22;57676;43.856;1.926;2022-09-28T05:40:16;14.60;99.90
70267;DHT22;57676;43.856;1.926;2022-09-28T05:42:42;14.70;99.90
70267;DHT22;57676;43.856;1.926;2022-09-28T05:45:08;14.70;99.90
70267;DHT22;57676;43.856;1.926;2022-09-28T05:47:38;14.70;99.90
70267;DHT22;57676;43.856;1.926;2022-09-28T05:50:06;14.70;99.90
70267;DHT22;57676;43.856;1.926;2022-09-28T05:52:32;14.70;99.90
70267;DHT22;57676;43.856;1.926;2022-09-28T05:54:58;14.70;99.90
70267;DHT22;57676;43.856;1.926;2022-09-28T05:57:24;14.70;99.90
70267;DHT22;57676;43.856;1.926;2022-09-28T05:59:49;14.70;99.90
70267;DHT22;57676;43.856;1.926;2022-09-28T06:02:15;14.60;99.90
70267;DHT22;57676;43.856;1.926;2022-09-28T06:04:42;14.60;99.90
70267;DHT22;57676;43.856;1.926;2022-09-28T06:07:08;14.60;99.90
70267;DHT22;57676;43.856;1.926;2022-09-28T06:09:34;14.60;99.90
70267;DHT22;57676;43.856;1.926;2022-09-28T06:12:00;14.70;99.90
70267;DHT22;57676;43.856;1.926;2022-09-28T06:14:25;14.70;99.90
70267;DHT22;57676;43.856;1.926;2022-09-28T06:16:51;14.70;99.90
70267;DHT22;57676;43.856;1.926;2022-09-28T06:21:43;14.90;99.90
70267;DHT22;57676;43.856;1.926;2022-09-28T06:24:09;14.90;99.90
70267;DHT22;57676;43.856;1.926;2022-09-28T06:26:35;15.00;99.90
70267;DHT22;57676;43.856;1.926;2022-09-28T06:29:01;15.00;99.90
70267;DHT22;57676;43.856;1.926;2022-09-28T06:31:28;14.90;99.90
70267;DHT22;57676;43.856;1.926;2022-09-28T06:33:54;14.90;99.90
70267;DHT22;57676;43.856;1.926;2022-09-28T06:36:20;15.00;99.90
70267;DHT22;57676;43.856;1.926;2022-09-28T06:38:46;15.00;99.90
70267;DHT22;57676;43.856;1.926;2022-09-28T06:41:12;14.90;99.90
70267;DHT22;57676;43.856;1.926;2022-09-28T06:43:38;14.90;99.90
70267;DHT22;57676;43.856;1.926;2022-09-28T06:48:31;15.70;99.90
70267;DHT22;57676;43.856;1.926;2022-09-28T06:50:59;15.50;99.90
70267;DHT22;57676;43.856;1.926;2022-09-28T06:53:25;15.70;99.90
70267;DHT22;57676;43.856;1.926;2022-09-28T06:55:52;15.60;99.90
70267;DHT22;57676;43.856;1.926;2022-09-28T06:58:19;15.60;99.90
70267;DHT22;57676;43.856;1.926;2022-09-28T07:00:47;15.60;99.90
70267;DHT22;57676;43.856;1.926;2022-09-28T07:03:15;15.50;99.90
70267;DHT22;57676;43.856;1.926;2022-09-28T07:05:45;15.60;99.90
70267;DHT22;57676;43.856;1.926;2022-09-28T07:08:11;15.70;99.90
70267;DHT22;57676;43.856;1.926;2022-09-28T07:10:43;15.80;99.90
70267;DHT22;57676;43.856;1.926;2022-09-28T07:13:10;15.70;99.90
70267;DHT22;57676;43.856;1.926;2022-09-28T07:15:38;15.90;99.90
70267;DHT22;57676;43.856;1.926;2022-09-28T07:18:05;15.90;99.90
70267;DHT22;57676;43.856;1.926;2022-09-28T07:20:33;16.00;99.90
70267;DHT22;57676;43.856;1.926;2022-09-28T07:23:02;16.00;99.90
70267;DHT22;57676;43.856;1.926;2022-09-28T07:27:57;16.20;99.90
70267;DHT22;57676;43.856;1.926;2022-09-28T07:30:25;16.20;99.90
70267;DHT22;57676;43.856;1.926;2022-09-28T07:32:52;16.20;99.90
70267;DHT22;57676;43.856;1.926;2022-09-28T07:35:18;16.20;99.90
70267;DHT22;57676;43.856;1.926;2022-09-28T07:37:44;16.50;99.90
70267;DHT22;57676;43.856;1.926;2022-09-28T07:40:10;16.70;99.90
70267;DHT22;57676;43.856;1.926;2022-09-28T07:43:03;16.40;99.90
70267;DHT22;57676;43.856;1.926;2022-09-28T07:45:29;16.30;99.90
70267;DHT22;57676;43.856;1.926;2022-09-28T07:47:55;16.20;99.90
70267;DHT22;57676;43.856;1.926;2022-09-28T07:50:21;16.20;99.90
70267;DHT22;57676;43.856;1.926;2022-09-28T07:52:47;16.10;99.90
70267;DHT22;57676;43.856;1.926;2022-09-28T07:55:14;16.00;99.90
70267;DHT22;57676;43.856;1.926;2022-09-28T07:57:40;16.00;99.90
70267;DHT22;57676;43.856;1.926;2022-09-28T08:00:07;16.00;99.90
70267;DHT22;57676;43.856;1.926;2022-09-28T08:02:34;16.00;99.90
70267;DHT22;57676;43.856;1.926;2022-09-28T08:05:01;16.10;99.90
70267;DHT22;57676;43.856;1.926;2022-09-28T08:07:27;16.20;99.90
70267;DHT22;57676;43.856;1.926;2022-09-28T08:09:53;16.10;99.90
70267;DHT22;57676;43.856;1.926;2022-09-28T08:12:19;16.10;99.90
70267;DHT22;57676;43.856;1.926;2022-09-28T08:14:46;16.10;99.90
70267;DHT22;57676;43.856;1.926;2022-09-28T08:17:12;16.20;99.90
70267;DHT22;57676;43.856;1.926;2022-09-28T08:19:38;16.40;99.90
70267;DHT22;57676;43.856;1.926;2022-09-28T08:22:23;16.40;99.90
70267;DHT22;57676;43.856;1.926;2022-09-28T08:24:49;16.30;99.90
70267;DHT22;57676;43.856;1.926;2022-09-28T08:27:16;16.30;99.90
70267;DHT22;57676;43.856;1.926;2022-09-28T08:29:42;16.20;99.90
70267;DHT22;57676;43.856;1.926;2022-09-28T08:32:09;16.40;99.90
70267;DHT22;57676;43.856;1.926;2022-09-28T08:34:36;16.60;99.90
70267;DHT22;57676;43.856;1.926;2022-09-28T08:37:03;17.10;99.90
70267;DHT22;57676;43.856;1.926;2022-09-28T08:39:29;17.10;99.90
70267;DHT22;57676;43.856;1.926;2022-09-28T08:45:22;17.20;99.90
70267;DHT22;57676;43.856;1.926;2022-09-28T08:48:03;17.00;99.90
70267;DHT22;57676;43.856;1.926;2022-09-28T08:50:57;17.00;99.90
70267;DHT22;57676;43.856;1.926;2022-09-28T08:56:17;16.90;99.90
70267;DHT22;57676;43.856;1.926;2022-09-28T08:58:57;17.20;99.90
70267;DHT22;57676;43.856;1.926;2022-09-28T09:01:27;17.40;99.90
70267;DHT22;57676;43.856;1.926;2022-09-28T09:03:56;17.50;99.90
70267;DHT22;57676;43.856;1.926;2022-09-28T09:06:33;17.60;99.90
70267;DHT22;57676;43.856;1.926;2022-09-28T09:23:34;18.70;99.90
70267;DHT22;57676;43.856;1.926;2022-09-28T09:26:18;18.40;99.90
70267;DHT22;57676;43.856;1.926;2022-09-28T09:37:53;18.40;99.90
70267;DHT22;57676;43.856;1.926;2022-09-28T09:40:50;18.40;99.90
70267;DHT22;57676;43.856;1.926;2022-09-28T09:43:37;17.90;99.90
70267;DHT22;57676;43.856;1.926;2022-09-28T09:46:32;17.80;99.90
70267;DHT22;57676;43.856;1.926;2022-09-28T09:49:17;17.60;99.90
70267;DHT22;57676;43.856;1.926;2022-09-28T09:51:55;17.30;99.90
70267;DHT22;57676;43.856;1.926;2022-09-28T09:57:18;17.40;99.90
70267;DHT22;57676;43.856;1.926;2022-09-28T09:59:46;17.50;99.90
70267;DHT22;57676;43.856;1.926;2022-09-28T10:02:31;17.40;99.90
70267;DHT22;57676;43.856;1.926;2022-09-28T10:05:13;17.40;99.90
70267;DHT22;57676;43.856;1.926;2022-09-28T10:07:52;17.30;99.90
70267;DHT22;57676;43.856;1.926;2022-09-28T10:10:32;17.10;99.90
70267;DHT22;57676;43.856;1.926;2022-09-28T10:12:58;17.00;99.90
70267;DHT22;57676;43.856;1.926;2022-09-28T10:15:27;17.10;99.90
70267;DHT22;57676;43.856;1.926;2022-09-28T10:17:54;17.20;99.90
70267;DHT22;57676;43.856;1.926;2022-09-28T10:20:21;17.10;99.90
70267;DHT22;57676;43.856;1.926;2022-09-28T10:22:50;17.20;99.90
70267;DHT22;57676;43.856;1.926;2022-09-28T10:25:17;17.60;99.90
70267;DHT22;57676;43.856;1.926;2022-09-28T10:27:44;18.10;99.90
70267;DHT22;57676;43.856;1.926;2022-09-28T10:30:19;18.20;99.90
70267;DHT22;57676;43.856;1.926;2022-09-28T10:32:49;18.30;99.90
70267;DHT22;57676;43.856;1.926;2022-09-28T10:35:28;18.40;99.90
70267;DHT22;57676;43.856;1.926;2022-09-28T10:37:59;18.50;99.90
70267;DHT22;57676;43.856;1.926;2022-09-28T10:43:36;18.40;99.90
70267;DHT22;57676;43.856;1.926;2022-09-28T10:46:11;18.50;99.90
70267;DHT22;57676;43.856;1.926;2022-09-28T10:49:01;18.60;99.90
70267;DHT22;57676;43.856;1.926;2022-09-28T10:51:48;18.60;99.90
70267;DHT22;57676;43.856;1.926;2022-09-28T10:54:18;18.30;99.90
70267;DHT22;57676;43.856;1.926;2022-09-28T10:56:44;18.10;99.90
70267;DHT22;57676;43.856;1.926;2022-09-28T10:59:34;17.90;99.90
70267;DHT22;57676;43.856;1.926;2022-09-28T11:02:11;17.90;99.90
70267;DHT22;57676;43.856;1.926;2022-09-28T11:04:42;17.90;99.90
70267;DHT22;57676;43.856;1.926;2022-09-28T11:07:29;17.90;99.90
70267;DHT22;57676;43.856;1.926;2022-09-28T11:09:56;17.90;99.90
70267;DHT22;57676;43.856;1.926;2022-09-28T11:12:28;17.80;99.90
70267;DHT22;57676;43.856;1.926;2022-09-28T11:15:00;17.70;99.90
70267;DHT22;57676;43.856;1.926;2022-09-28T11:17:30;17.70;99.90
70267;DHT22;57676;43.856;1.926;2022-09-28T11:20:00;17.60;99.90
70267;DHT22;57676;43.856;1.926;2022-09-28T11:22:37;17.90;99.90
70267;DHT22;57676;43.856;1.926;2022-09-28T11:25:27;18.10;99.90
70267;DHT22;57676;43.856;1.926;2022-09-28T11:27:55;18.10;99.90
70267;DHT22;57676;43.856;1.926;2022-09-28T11:30:26;17.90;99.90
70267;DHT22;57676;43.856;1.926;2022-09-28T11:32:59;17.70;99.90
70267;DHT22;57676;43.856;1.926;2022-09-28T11:35:43;17.70;99.90
70267;DHT22;57676;43.856;1.926;2022-09-28T11:38:27;18.00;99.90
70267;DHT22;57676;43.856;1.926;2022-09-28T11:50:13;18.10;99.90
70267;DHT22;57676;43.856;1.926;2022-09-28T11:53:08;18.20;99.90
70267;DHT22;57676;43.856;1.926;2022-09-28T11:55:41;18.20;99.90
70267;DHT22;57676;43.856;1.926;2022-09-28T11:58:10;18.20;99.90
70267;DHT22;57676;43.856;1.926;2022-09-28T12:00:44;18.30;99.90
70267;DHT22;57676;43.856;1.926;2022-09-28T12:03:35;18.40;99.90
70267;DHT22;57676;43.856;1.926;2022-09-28T12:06:06;18.30;99.90
70267;DHT22;57676;43.856;1.926;2022-09-28T12:08:38;18.30;99.90
70267;DHT22;57676;43.856;1.926;2022-09-28T12:13:42;18.50;99.90
70267;DHT22;57676;43.856;1.926;2022-09-28T12:16:16;18.40;99.90
70267;DHT22;57676;43.856;1.926;2022-09-28T12:19:05;18.10;99.90
70267;DHT22;57676;43.856;1.926;2022-09-28T12:21:54;17.90;99.90
70267;DHT22;57676;43.856;1.926;2022-09-28T12:24:43;17.80;99.90
70267;DHT22;57676;43.856;1.926;2022-09-28T12:27:39;17.90;99.90
70267;DHT22;57676;43.856;1.926;2022-09-28T12:32:55;18.40;99.90
70267;DHT22;57676;43.856;1.926;2022-09-28T12:35:49;18.80;99.90
70267;DHT22;57676;43.856;1.926;2022-09-28T12:41:23;19.60;99.90
70267;DHT22;57676;43.856;1.926;2022-09-28T12:50:30;18.60;99.90
70267;DHT22;57676;43.856;1.926;2022-09-28T12:53:20;18.40;99.90
70267;DHT22;57676;43.856;1.926;2022-09-28T12:56:26;18.10;99.90
70267;DHT22;57676;43.856;1.926;2022-09-28T13:11:00;17.70;99.90
70267;DHT22;57676;43.856;1.926;2022-09-28T13:13:43;17.50;99.90
70267;DHT22;57676;43.856;1.926;2022-09-28T13:16:36;17.20;99.90
70267;DHT22;57676;43.856;1.926;2022-09-28T13:25:10;17.30;99.90
70267;DHT22;57676;43.856;1.926;2022-09-28T13:27:40;17.40;99.90
70267;DHT22;57676;43.856;1.926;2022-09-28T13:30:13;17.40;99.90
70267;DHT22;57676;43.856;1.926;2022-09-28T13:32:40;17.40;99.90
70267;DHT22;57676;43.856;1.926;2022-09-28T13:35:12;17.60;99.90
70267;DHT22;57676;43.856;1.926;2022-09-28T13:37:39;17.80;99.90
70267;DHT22;57676;43.856;1.926;2022-09-28T13:40:06;18.00;99.90
70267;DHT22;57676;43.856;1.926;2022-09-28T13:45:33;18.30;99.90
70267;DHT22;57676;43.856;1.926;2022-09-28T13:48:19;18.50;99.90
70267;DHT22;57676;43.856;1.926;2022-09-28T13:51:10;18.40;99.90
70267;DHT22;57676;43.856;1.926;2022-09-28T13:56:53;18.00;99.90
70267;DHT22;57676;43.856;1.926;2022-09-28T13:59:25;18.00;99.90
70267;DHT22;57676;43.856;1.926;2022-09-28T14:02:00;17.70;99.90
70267;DHT22;57676;43.856;1.926;2022-09-28T14:05:01;17.60;99.90
70267;DHT22;57676;43.856;1.926;2022-09-28T14:10:54;17.20;99.90
70267;DHT22;57676;43.856;1.926;2022-09-28T14:13:56;17.30;99.90
70267;DHT22;57676;43.856;1.926;2022-09-28T14:16:24;17.40;99.90
70267;DHT22;57676;43.856;1.926;2022-09-28T14:19:01;17.50;99.90
70267;DHT22;57676;43.856;1.926;2022-09-28T14:21:46;17.60;99.90
70267;DHT22;57676;43.856;1.926;2022-09-28T14:24:41;17.40;99.90
70267;DHT22;57676;43.856;1.926;2022-09-28T14:32:57;17.50;99.90
70267;DHT22;57676;43.856;1.926;2022-09-28T14:35:47;17.50;99.90
70267;DHT22;57676;43.856;1.926;2022-09-28T14:38:17;17.50;99.90
70267;DHT22;57676;43.856;1.926;2022-09-28T14:44:13;17.50;99.90
70267;DHT22;57676;43.856;1.926;2022-09-28T14:46:43;17.40;99.90
70267;DHT22;57676;43.856;1.926;2022-09-28T14:52:11;17.30;99.90
70267;DHT22;57676;43.856;1.926;2022-09-28T14:54:47;17.50;99.90
70267;DHT22;57676;43.856;1.926;2022-09-28T14:57:19;17.60;99.90
70267;DHT22;57676;43.856;1.926;2022-09-28T14:59:45;17.60;99.90
70267;DHT22;57676;43.856;1.926;2022-09-28T15:02:21;17.50;99.90
70267;DHT22;57676;43.856;1.926;2022-09-28T15:04:52;17.50;99.90
70267;DHT22;57676;43.856;1.926;2022-09-28T15:07:24;17.50;99.90
70267;DHT22;57676;43.856;1.926;2022-09-28T15:09:53;17.50;99.90
70267;DHT22;57676;43.856;1.926;2022-09-28T15:12:24;17.50;99.90
70267;DHT22;57676;43.856;1.926;2022-09-28T15:14:57;17.40;99.90
70267;DHT22;57676;43.856;1.926;2022-09-28T15:17:27;17.30;99.90
70267;DHT22;57676;43.856;1.926;2022-09-28T15:22:59;17.40;99.90
70267;DHT22;57676;43.856;1.926;2022-09-28T15:25:27;17.50;99.90
70267;DHT22;57676;43.856;1.926;2022-09-28T15:27:56;17.60;99.90
70267;DHT22;57676;43.856;1.926;2022-09-28T15:30:26;17.90;99.90
70267;DHT22;57676;43.856;1.926;2022-09-28T15:32:54;17.90;99.90
70267;DHT22;57676;43.856;1.926;2022-09-28T15:35:24;17.80;99.90
70267;DHT22;57676;43.856;1.926;2022-09-28T15:37:52;17.50;99.90
70267;DHT22;57676;43.856;1.926;2022-09-28T15:40:29;17.30;99.90
70267;DHT22;57676;43.856;1.926;2022-09-28T15:42:56;17.40;99.90
70267;DHT22;57676;43.856;1.926;2022-09-28T15:45:30;17.40;99.90
70267;DHT22;57676;43.856;1.926;2022-09-28T15:48:25;17.30;99.90
70267;DHT22;57676;43.856;1.926;2022-09-28T15:54:09;17.40;99.90
70267;DHT22;57676;43.856;1.926;2022-09-28T15:56:51;17.40;99.90
70267;DHT22;57676;43.856;1.926;2022-09-28T15:59:26;17.30;99.90
70267;DHT22;57676;43.856;1.926;2022-09-28T16:05:00;17.20;99.90
70267;DHT22;57676;43.856;1.926;2022-09-28T16:10:33;17.50;99.90
70267;DHT22;57676;43.856;1.926;2022-09-28T16:13:20;17.70;99.90
70267;DHT22;57676;43.856;1.926;2022-09-28T16:15:53;17.90;99.90
70267;DHT22;57676;43.856;1.926;2022-09-28T16:18:22;17.80;99.90
70267;DHT22;57676;43.856;1.926;2022-09-28T16:20:51;17.70;99.90
70267;DHT22;57676;43.856;1.926;2022-09-28T16:23:37;17.60;99.90
70267;DHT22;57676;43.856;1.926;2022-09-28T16:26:06;17.40;99.90
70267;DHT22;57676;43.856;1.926;2022-09-28T16:28:48;17.20;99.90
70267;DHT22;57676;43.856;1.926;2022-09-28T16:31:29;17.00;99.90
70267;DHT22;57676;43.856;1.926;2022-09-28T16:36:46;16.70;99.90
70267;DHT22;57676;43.856;1.926;2022-09-28T16:39:13;16.70;99.90
70267;DHT22;57676;43.856;1.926;2022-09-28T16:41:44;16.60;99.90
70267;DHT22;57676;43.856;1.926;2022-09-28T16:44:17;16.70;99.90
70267;DHT22;57676;43.856;1.926;2022-09-28T16:46:44;16.60;99.90
70267;DHT22;57676;43.856;1.926;2022-09-28T16:49:13;16.50;99.90
70267;DHT22;57676;43.856;1.926;2022-09-28T16:51:44;16.60;99.90
70267;DHT22;57676;43.856;1.926;2022-09-28T16:54:15;16.60;99.90
70267;DHT22;57676;43.856;1.926;2022-09-28T16:57:02;16.60;99.90
70267;DHT22;57676;43.856;1.926;2022-09-28T16:59:29;16.50;99.90
70267;DHT22;57676;43.856;1.926;2022-09-28T17:01:55;16.50;99.90
70267;DHT22;57676;43.856;1.926;2022-09-28T17:04:23;16.40;99.90
70267;DHT22;57676;43.856;1.926;2022-09-28T17:06:50;16.40;99.90
70267;DHT22;57676;43.856;1.926;2022-09-28T17:09:19;16.30;99.90
70267;DHT22;57676;43.856;1.926;2022-09-28T17:11:46;16.30;99.90
70267;DHT22;57676;43.856;1.926;2022-09-28T17:14:11;16.30;99.90
70267;DHT22;57676;43.856;1.926;2022-09-28T17:16:38;16.20;99.90
70267;DHT22;57676;43.856;1.926;2022-09-28T17:19:25;16.10;99.90
70267;DHT22;57676;43.856;1.926;2022-09-28T17:21:53;16.00;99.90
70267;DHT22;57676;43.856;1.926;2022-09-28T17:24:19;16.00;99.90
70267;DHT22;57676;43.856;1.926;2022-09-28T17:26:46;15.90;99.90
70267;DHT22;57676;43.856;1.926;2022-09-28T17:29:14;15.80;99.90
70267;DHT22;57676;43.856;1.926;2022-09-28T17:31:41;15.80;99.90
70267;DHT22;57676;43.856;1.926;2022-09-28T17:34:08;15.80;99.90
70267;DHT22;57676;43.856;1.926;2022-09-28T17:36:34;15.70;99.90
70267;DHT22;57676;43.856;1.926;2022-09-28T17:39:00;15.70;99.90
70267;DHT22;57676;43.856;1.926;2022-09-28T17:41:26;15.70;99.90
70267;DHT22;57676;43.856;1.926;2022-09-28T17:43:52;15.70;99.90
70267;DHT22;57676;43.856;1.926;2022-09-28T17:46:26;15.70;99.90
70267;DHT22;57676;43.856;1.926;2022-09-28T17:48:53;15.70;99.90
70267;DHT22;57676;43.856;1.926;2022-09-28T17:51:19;15.70;99.90
70267;DHT22;57676;43.856;1.926;2022-09-28T17:53:47;15.80;99.90
70267;DHT22;57676;43.856;1.926;2022-09-28T17:56:12;15.80;99.90
70267;DHT22;57676;43.856;1.926;2022-09-28T17:58:38;15.80;99.90
70267;DHT22;57676;43.856;1.926;2022-09-28T18:01:04;15.80;99.90
70267;DHT22;57676;43.856;1.926;2022-09-28T18:03:30;15.90;99.90
70267;DHT22;57676;43.856;1.926;2022-09-28T18:06:02;15.90;99.90
70267;DHT22;57676;43.856;1.926;2022-09-28T18:08:28;16.00;99.90
70267;DHT22;57676;43.856;1.926;2022-09-28T18:10:54;15.90;99.90
70267;DHT22;57676;43.856;1.926;2022-09-28T18:13:22;15.90;99.90
70267;DHT22;57676;43.856;1.926;2022-09-28T18:15:50;15.90;99.90
70267;DHT22;57676;43.856;1.926;2022-09-28T18:18:16;15.90;99.90
70267;DHT22;57676;43.856;1.926;2022-09-28T18:20:42;15.80;99.90
70267;DHT22;57676;43.856;1.926;2022-09-28T18:23:08;15.80;99.90
70267;DHT22;57676;43.856;1.926;2022-09-28T18:25:33;15.80;99.90
70267;DHT22;57676;43.856;1.926;2022-09-28T18:27:59;15.90;99.90
70267;DHT22;57676;43.856;1.926;2022-09-28T18:30:26;15.90;99.90
70267;DHT22;57676;43.856;1.926;2022-09-28T18:32:52;15.90;99.90
70267;DHT22;57676;43.856;1.926;2022-09-28T18:35:18;15.90;99.90
70267;DHT22;57676;43.856;1.926;2022-09-28T18:37:44;15.60;99.90
70267;DHT22;57676;43.856;1.926;2022-09-28T18:40:11;15.50;99.90
70267;DHT22;57676;43.856;1.926;2022-09-28T18:42:38;15.30;99.90
70267;DHT22;57676;43.856;1.926;2022-09-28T18:45:06;15.30;99.90
70267;DHT22;57676;43.856;1.926;2022-09-28T18:47:33;15.20;99.90
70267;DHT22;57676;43.856;1.926;2022-09-28T18:49:59;15.20;99.90
70267;DHT22;57676;43.856;1.926;2022-09-28T18:52:25;15.20;99.90
70267;DHT22;57676;43.856;1.926;2022-09-28T18:54:51;15.20;99.90
70267;DHT22;57676;43.856;1.926;2022-09-28T18:57:18;15.10;99.90
70267;DHT22;57676;43.856;1.926;2022-09-28T18:59:44;15.00;99.90
70267;DHT22;57676;43.856;1.926;2022-09-28T19:02:10;15.00;99.90
70267;DHT22;57676;43.856;1.926;2022-09-28T19:04:37;15.00;99.90
70267;DHT22;57676;43.856;1.926;2022-09-28T19:07:03;15.00;99.90
70267;DHT22;57676;43.856;1.926;2022-09-28T19:09:29;14.90;99.90
70267;DHT22;57676;43.856;1.926;2022-09-28T19:11:55;14.80;99.90
70267;DHT22;57676;43.856;1.926;2022-09-28T19:14:21;14.70;99.90
70267;DHT22;57676;43.856;1.926;2022-09-28T19:16:47;14.70;99.90
70267;DHT22;57676;43.856;1.926;2022-09-28T19:19:17;14.70;99.90
70267;DHT22;57676;43.856;1.926;2022-09-28T19:21:44;14.70;99.90
70267;DHT22;57676;43.856;1.926;2022-09-28T19:24:13;14.70;99.90
70267;DHT22;57676;43.856;1.926;2022-09-28T19:26:40;14.70;99.90
70267;DHT22;57676;43.856;1.926;2022-09-28T19:29:06;14.70;99.90
70267;DHT22;57676;43.856;1.926;2022-09-28T19:31:33;14.70;99.90
70267;DHT22;57676;43.856;1.926;2022-09-28T19:33:59;14.80;99.90
70267;DHT22;57676;43.856;1.926;2022-09-28T19:36:25;14.90;99.90
70267;DHT22;57676;43.856;1.926;2022-09-28T19:38:53;14.90;99.90
70267;DHT22;57676;43.856;1.926;2022-09-28T19:41:21;14.90;99.90
70267;DHT22;57676;43.856;1.926;2022-09-28T19:44:11;14.90;99.90
70267;DHT22;57676;43.856;1.926;2022-09-28T19:46:38;14.90;99.90
70267;DHT22;57676;43.856;1.926;2022-09-28T19:49:12;14.80;99.90
70267;DHT22;57676;43.856;1.926;2022-09-28T19:51:40;14.80;99.90